Terminal Aerodrome Forecast
Issued by NWS St Louis, MO

Home | Current Version | Previous Version | Text Only | Print | Product List | Glossary On
Versions: 1 2 3 4 5 6 7 8 9 10 11 12 13 14 15 16 17 18 19 20 21 22 23 24 25 26 27 28 29 30 31 32 33 34 35 36
000
FTUS43 KLSX 192330
TAFCOU
TAF
KCOU 192330Z 2000/2024 25007KT 6SM -SHRA VCTS BKN040CB
      TEMPO 2001/2003 VRB20G40KT 1SM +TSRA OVC015CB
     FM200400 14006KT P6SM BKN090
     FM201300 20005KT P6SM VCTS BKN040CB
     FM201800 27007KT P6SM BKN120=

USA.gov is the U.S. government's official web portal to all federal, state and local government web resources and services.